Time;durP1;ratioP1;P1;durP2;ratioP2;P2;SDS_P1;SDS_P2;PMS_P1;PMS_P2;Temp;Humidity;BMP_temperature;BMP_pressure;BME280_temperature;BME280_humidity;BME280_pressure;Samples;Min_cycle;Max_cycle;Signal;HPM_P1;HPM_P2
2020/12/07 00:02:20;;;;;;;18.40;12.37;;;;;;;1.49;87.65;99072.45;1663309;84;21219;-69
2020/12/07 00:04:48;;;;;;;20.50;14.58;;;;;;;1.49;87.65;99071.16;1663535;84;21077;-69
2020/12/07 00:07:16;;;;;;;20.82;15.13;;;;;;;1.46;87.65;99075.09;1661507;84;27756;-68
2020/12/07 00:09:43;;;;;;;19.60;13.72;;;;;;;1.46;87.66;99071.23;1655356;85;21609;-70
2020/12/07 00:12:10;;;;;;;18.50;13.62;;;;;;;1.46;87.67;99077.66;1649950;86;21167;-69
2020/12/07 00:14:37;;;;;;;17.48;13.30;;;;;;;1.45;87.65;99079.80;1652414;84;21099;-69
2020/12/07 00:17:03;;;;;;;17.25;13.60;;;;;;;1.46;87.65;99084.09;1651444;85;21592;-69
2020/12/07 00:19:30;;;;;;;19.60;14.75;;;;;;;1.46;87.62;99078.11;1653967;84;21258;-69
2020/12/07 00:21:57;;;;;;;16.57;11.18;;;;;;;1.46;87.62;99074.24;1655674;84;21170;-70
2020/12/07 00:24:24;;;;;;;16.93;12.30;;;;;;;1.45;87.58;99059.22;1642473;85;21223;-68
2020/12/07 00:26:51;;;;;;;19.85;12.53;;;;;;;1.44;87.56;99072.98;1645623;86;21275;-69
2020/12/07 00:29:18;;;;;;;18.23;13.60;;;;;;;1.43;87.54;99052.41;1651356;85;21230;-70
2020/12/07 00:31:45;;;;;;;16.30;11.83;;;;;;;1.42;87.56;99067.00;1623077;87;21167;-71
2020/12/07 00:34:12;;;;;;;17.92;12.05;;;;;;;1.42;87.51;99058.00;1657737;85;21640;-71
2020/12/07 00:36:43;;;;;;;16.27;11.73;;;;;;;1.42;87.49;99056.72;1656715;85;21668;-69
2020/12/07 00:39:10;;;;;;;16.05;12.78;;;;;;;1.41;87.49;99061.91;1648869;85;21818;-70
2020/12/07 00:41:37;;;;;;;19.42;13.85;;;;;;;1.41;87.50;99064.04;1643890;85;21112;-70
2020/12/07 00:44:07;;;;;;;20.17;14.23;;;;;;;1.39;87.51;99067.07;1657306;85;21131;-70
2020/12/07 00:46:35;;;;;;;15.80;11.00;;;;;;;1.38;87.53;99075.67;1656070;85;21605;-68
2020/12/07 00:49:01;;;;;;;;;;;;;;;1.37;87.45;99061.10;1646838;85;21124;-70
2020/12/07 00:51:28;;;;;;;18.82;11.85;;;;;;;1.37;87.46;99066.25;1651813;85;20150;-71
2020/12/07 00:53:55;;;;;;;20.25;13.78;;;;;;;1.35;87.45;99062.88;1653942;85;21124;-69
2020/12/07 00:56:22;;;;;;;19.27;13.00;;;;;;;1.34;87.47;99059.88;1656847;85;21183;-68
2020/12/07 00:58:49;;;;;;;17.05;11.55;;;;;;;1.32;87.40;99065.52;1657090;85;21257;-71
2020/12/07 01:01:16;;;;;;;18.00;11.70;;;;;;;1.30;87.41;99050.11;1654541;85;22269;-71
2020/12/07 01:03:43;;;;;;;14.33;11.33;;;;;;;1.29;87.43;99057.88;1658351;85;21182;-70
2020/12/07 01:06:10;;;;;;;15.78;8.28;;;;;;;1.28;87.35;99056.16;1664074;84;21642;-69
2020/12/07 01:08:37;;;;;;;15.58;12.15;;;;;;;1.26;87.36;99052.76;1672581;84;21251;-70
2020/12/07 01:11:03;;;;;;;23.22;13.93;;;;;;;1.25;87.35;99039.50;1680323;83;21588;-69
2020/12/07 01:13:30;;;;;;;20.90;12.95;;;;;;;1.24;87.41;99048.11;1680171;84;21228;-69
2020/12/07 01:15:57;;;;;;;17.25;13.25;;;;;;;1.23;87.38;99052.83;1676676;84;21593;-69
2020/12/07 01:18:24;;;;;;;17.45;11.93;;;;;;;1.22;87.32;99060.98;1638529;85;21238;-70
2020/12/07 01:20:51;;;;;;;20.12;12.63;;;;;;;1.22;87.28;99056.28;1650528;85;21230;-70
2020/12/07 01:23:18;;;;;;;17.95;12.47;;;;;;;1.22;87.33;99056.28;1634531;85;21721;-69
2020/12/07 01:25:45;;;;;;;16.65;11.88;;;;;;;1.22;87.28;99049.86;1633327;85;21725;-68
2020/12/07 01:28:12;;;;;;;18.25;13.25;;;;;;;1.20;87.22;99052.89;1644200;85;21222;-68
2020/12/07 01:30:39;;;;;;;17.55;12.28;;;;;;;1.19;87.21;99053.78;1642575;85;21100;-70
2020/12/07 01:33:06;;;;;;;20.95;12.63;;;;;;;1.18;87.17;99052.09;1647618;85;21212;-70
2020/12/07 01:35:32;;;;;;;16.48;12.07;;;;;;;1.18;87.18;99058.08;1639710;85;21257;-70
2020/12/07 01:38:00;;;;;;;19.42;13.40;;;;;;;1.18;87.14;99062.38;1648314;85;21298;-69
2020/12/07 01:40:26;;;;;;;16.40;11.68;;;;;;;1.17;87.13;99060.67;1654424;85;21696;-68
2020/12/07 01:42:54;;;;;;;14.83;10.85;;;;;;;1.16;87.08;99056.41;1651701;85;21085;-69
2020/12/07 01:45:21;;;;;;;17.73;11.85;;;;;;;1.16;87.08;99056.41;1654676;85;21207;-71
2020/12/07 01:47:48;;;;;;;18.02;11.90;;;;;;;1.15;87.00;99054.70;1654786;85;21223;-70
2020/12/07 01:50:15;;;;;;;18.73;13.03;;;;;;;1.15;87.02;99044.41;1642492;85;21230;-68
2020/12/07 01:52:43;;;;;;;16.50;11.60;;;;;;;1.14;87.08;99043.57;1643535;85;21654;-69
2020/12/07 01:55:10;;;;;;;16.17;11.40;;;;;;;1.14;86.98;99042.73;1648318;85;21665;-70
2020/12/07 01:57:38;;;;;;;16.80;11.78;;;;;;;1.13;86.98;99049.61;1682131;84;21592;-69
2020/12/07 02:00:06;;;;;;;;;;;;;;;1.10;86.95;99029.94;1681463;84;21218;-69
2020/12/07 02:02:33;;;;;;;17.25;12.85;;;;;;;1.08;86.98;99047.11;1676429;84;21230;-68
2020/12/07 02:05:01;;;;;;;17.20;12.10;;;;;;;1.06;86.96;99048.86;1681271;83;24714;-70
2020/12/07 02:07:27;;;;;;;18.07;11.68;;;;;;;1.05;86.95;99039.46;1685700;83;21783;-69
2020/12/07 02:09:55;;;;;;;21.27;12.93;;;;;;;1.05;87.04;99036.05;1677575;83;21174;-70
2020/12/07 02:12:21;;;;;;;19.82;12.98;;;;;;;1.04;86.95;99040.34;1673126;83;21673;-69
2020/12/07 02:14:48;;;;;;;18.98;11.97;;;;;;;1.02;86.99;99031.81;1676921;84;21246;-68
2020/12/07 02:17:17;;;;;;;20.32;12.25;;;;;;;1.02;86.97;99042.09;1682880;84;21558;-70
2020/12/07 02:19:49;;;;;;;19.87;12.47;;;;;;;1.02;86.94;99040.81;1678306;84;21328;-70
2020/12/07 02:22:16;;;;;;;15.85;11.45;;;;;;;1.00;86.94;99046.41;1679999;84;21052;-71
2020/12/07 02:24:45;;;;;;;19.05;13.15;;;;;;;1.00;86.97;99048.98;1671725;84;21203;-71
2020/12/07 02:27:12;;;;;;;17.90;10.82;;;;;;;1.01;86.97;99040.41;1676230;84;21586;-69
2020/12/07 02:29:39;;;;;;;16.70;12.68;;;;;;;1.02;86.94;99034.38;1677092;84;21087;-70
2020/12/07 02:32:16;;;;;;;15.23;11.85;;;;;;;1.02;86.92;99042.09;1674342;84;21177;-70
2020/12/07 02:34:43;;;;;;;20.50;12.75;;;;;;;1.02;86.85;99040.81;1680815;84;21762;-70
2020/12/07 02:37:10;;;;;;;;;;;;;;;1.01;86.86;99035.27;1676271;84;21163;-70
2020/12/07 02:39:37;;;;;;;14.13;11.63;;;;;;;1.01;86.86;99036.97;1681707;84;21290;-69
2020/12/07 02:42:05;;;;;;;16.15;10.90;;;;;;;0.99;86.87;99042.16;1677181;84;21073;-70
2020/12/07 02:44:32;;;;;;;18.40;12.60;;;;;;;0.98;86.82;99030.19;1675879;84;21537;-69
2020/12/07 02:46:59;;;;;;;16.77;10.40;;;;;;;0.97;86.82;99033.63;1675745;84;21254;-70
2020/12/07 02:52:04;;;;;;;17.48;11.73;;;;;;;0.99;86.79;99025.45;1816736;77;22833;-70
2020/12/07 02:54:30;;;;;;;16.82;11.03;;;;;;;0.92;86.73;99017.44;1797671;78;21009;-69
2020/12/07 02:56:57;;;;;;;16.23;12.15;;;;;;;0.91;86.77;99026.03;1805190;78;21595;-67
2020/12/07 02:59:24;;;;;;;12.30;10.00;;;;;;;0.88;86.78;99011.52;1791786;77;21009;-70
2020/12/07 03:01:51;;;;;;;19.35;12.23;;;;;;;0.86;86.77;99020.13;1803545;79;21570;-68
2020/12/07 03:04:18;;;;;;;15.00;11.15;;;;;;;0.83;86.73;99011.20;1795009;78;20945;-68
2020/12/07 03:06:45;;;;;;;18.42;12.53;;;;;;;0.80;86.75;99020.25;1791373;78;21529;-68
2020/12/07 03:09:12;;;;;;;15.53;11.63;;;;;;;0.77;86.83;99020.31;1802416;79;21218;-70
2020/12/07 03:11:39;;;;;;;13.75;9.08;;;;;;;0.75;86.89;99028.48;1794164;79;21034;-69
2020/12/07 03:14:06;;;;;;;19.62;11.33;;;;;;;0.74;86.78;99020.38;1793534;78;21004;-70
2020/12/07 03:16:33;;;;;;;20.77;10.88;;;;;;;0.73;86.87;99019.94;1799647;79;21031;-70
2020/12/07 03:19:01;;;;;;;18.45;12.47;;;;;;;0.71;86.86;99032.00;1801450;77;21907;-70
2020/12/07 03:21:28;;;;;;;15.03;11.30;;;;;;;0.69;86.87;99022.17;1795226;79;22105;-68
2020/12/07 03:23:55;;;;;;;18.85;13.05;;;;;;;0.66;86.81;99021.34;1783165;79;20946;-68
2020/12/07 03:26:21;;;;;;;17.52;13.13;;;;;;;0.64;86.84;99014.54;1780348;79;20949;-69
2020/12/07 03:28:48;;;;;;;17.00;10.85;;;;;;;0.62;86.83;99035.14;1784802;79;21095;-70
2020/12/07 03:31:15;;;;;;;16.12;11.57;;;;;;;0.62;86.85;99026.59;1790026;79;21566;-69
2020/12/07 03:33:42;;;;;;;16.23;12.53;;;;;;;0.59;86.84;99039.05;1799076;79;21196;-67
2020/12/07 03:36:09;;;;;;;15.13;11.73;;;;;;;0.58;86.77;99030.91;1806121;79;21044;-68
2020/12/07 03:38:36;;;;;;;12.88;10.13;;;;;;;0.55;86.63;99018.13;1797237;78;21147;-68
2020/12/07 03:41:03;;;;;;;17.10;11.88;;;;;;;0.53;86.75;99026.73;1791826;79;21661;-70
2020/12/07 03:43:30;;;;;;;19.25;11.63;;;;;;;0.51;86.78;99034.48;1798932;79;21009;-68
2020/12/07 03:45:57;;;;;;;17.55;13.28;;;;;;;0.50;86.75;99037.91;1798431;78;21187;-70
2020/12/07 03:48:24;;;;;;;15.70;12.50;;;;;;;0.49;86.75;99035.38;1799386;79;21576;-69
2020/12/07 03:50:51;;;;;;;17.30;13.08;;;;;;;0.48;86.75;99033.25;1788351;77;21052;-68
2020/12/07 03:53:18;;;;;;;18.77;12.80;;;;;;;0.48;86.75;99037.52;1801525;79;21775;-69
2020/12/07 03:55:45;;;;;;;20.15;13.22;;;;;;;0.47;86.71;99035.39;1806197;79;21581;-70
2020/12/07 03:58:12;;;;;;;13.60;9.95;;;;;;;0.46;86.72;99026.45;1784354;79;21627;-70
2020/12/07 04:00:39;;;;;;;17.42;12.58;;;;;;;0.45;86.65;99026.89;1792940;79;21633;-70
2020/12/07 04:03:09;;;;;;;12.43;10.93;;;;;;;0.44;86.61;99027.74;1801449;78;20994;-70
2020/12/07 04:05:38;;;;;;;15.85;9.98;;;;;;;0.42;86.61;99030.36;1800053;77;20997;-69
2020/12/07 04:08:04;;;;;;;14.58;10.98;;;;;;;0.41;86.57;99025.23;1794244;79;21143;-68
2020/12/07 04:10:31;;;;;;;14.28;9.88;;;;;;;0.38;86.60;99030.42;1789095;79;21583;-68
2020/12/07 04:12:58;;;;;;;21.00;13.28;;;;;;;0.36;86.55;99028.31;1794158;79;21044;-69
2020/12/07 04:15:25;;;;;;;18.98;12.00;;;;;;;0.34;86.56;99026.23;1795330;79;21020;-68
2020/12/07 04:17:52;;;;;;;16.60;10.60;;;;;;;0.33;86.58;99023.23;1773134;79;20992;-68
2020/12/07 04:20:19;;;;;;;20.40;13.25;;;;;;;0.31;86.50;99021.11;1797080;79;21219;-70
2020/12/07 04:22:46;;;;;;;22.55;12.43;;;;;;;0.29;86.48;99016.02;1790798;77;21132;-69
2020/12/07 04:25:13;;;;;;;17.80;12.80;;;;;;;0.26;86.49;99010.10;1786166;79;20962;-69
2020/12/07 04:27:40;;;;;;;24.60;15.80;;;;;;;0.24;86.50;99010.55;1783655;79;21190;-70
2020/12/07 04:30:07;;;;;;;20.97;14.25;;;;;;;0.21;86.53;99018.71;1800894;79;21195;-70
2020/12/07 04:32:34;;;;;;;22.93;15.23;;;;;;;0.21;86.54;99023.84;1803314;78;21084;-70
2020/12/07 04:35:01;;;;;;;22.15;15.38;;;;;;;0.20;86.55;99019.59;1798439;79;21546;-69
2020/12/07 04:37:28;;;;;;;16.82;12.13;;;;;;;0.20;86.53;99028.58;1810926;79;20989;-69
2020/12/07 04:39:55;;;;;;;20.02;12.53;;;;;;;0.18;86.55;99018.77;1794484;79;21134;-68
2020/12/07 04:42:22;;;;;;;24.15;13.55;;;;;;;0.17;86.48;99024.78;1783712;79;21183;-70
2020/12/07 04:44:49;;;;;;;16.20;11.15;;;;;;;0.15;86.49;99008.55;1794953;78;21004;-69
2020/12/07 04:47:18;;;;;;;18.20;13.28;;;;;;;0.15;86.52;99017.53;1792750;79;22555;-70
2020/12/07 04:49:46;;;;;;;19.75;10.75;;;;;;;0.13;86.46;99007.72;1799575;77;21020;-69
2020/12/07 04:52:14;;;;;;;20.35;14.68;;;;;;;0.11;86.46;99012.05;1791997;78;21112;-71
2020/12/07 04:54:42;;;;;;;15.80;10.03;;;;;;;0.10;86.49;99012.06;1734097;81;21078;-68
2020/12/07 04:57:10;;;;;;;13.65;9.00;;;;;;;0.08;86.45;99009.51;1768117;80;21116;-69
2020/12/07 04:59:40;;;;;;;12.82;9.15;;;;;;;0.06;86.40;99006.14;1764213;79;25582;-68
2020/12/07 05:02:08;;;;;;;17.73;11.38;;;;;;;0.03;86.48;98997.21;1722163;82;21045;-68
2020/12/07 05:04:37;;;;;;;17.92;11.53;;;;;;;0.01;86.48;98997.66;1728133;82;21043;-71
2020/12/07 05:07:08;;;;;;;24.15;13.58;;;;;;;0.01;86.47;99013.06;1729528;81;21120;-68
2020/12/07 05:09:37;;;;;;;17.50;11.38;;;;;;;0.00;86.47;99006.25;1727517;82;21041;-69
2020/12/07 05:14:45;;;;;;;16.95;11.22;;;;;;;0.04;86.47;98998.05;1799461;78;22837;-68
2020/12/07 05:17:14;;;;;;;;;;;;;;;-0.02;86.44;99002.84;1779683;80;20958;-70
2020/12/07 05:19:43;;;;;;;17.15;11.83;;;;;;;-0.03;86.43;99008.83;1775128;80;21198;-70
2020/12/07 05:22:15;;;;;;;17.10;11.40;;;;;;;-0.03;86.37;99008.83;1767159;80;21004;-69
2020/12/07 05:24:49;;;;;;;17.98;11.15;;;;;;;-0.05;86.39;99018.30;1780117;80;21026;-70
2020/12/07 05:27:17;;;;;;;16.45;12.37;;;;;;;-0.05;86.37;99010.60;1781636;79;21036;-67
2020/12/07 05:30:07;;;;;;;14.68;8.85;;;;;;;-0.07;86.39;98999.06;1771371;80;20993;-68
2020/12/07 05:32:33;;;;;;;19.82;13.65;;;;;;;-0.07;86.32;99011.05;1770549;80;21152;-69
2020/12/07 05:35:02;;;;;;;16.25;11.55;;;;;;;-0.09;86.36;99006.37;1774875;80;21029;-70
2020/12/07 05:37:34;;;;;;;15.50;10.68;;;;;;;-0.10;86.37;99014.95;1763638;80;21048;-70
2020/12/07 05:40:08;;;;;;;14.13;9.25;;;;;;;-0.10;86.32;99009.81;1765469;80;21034;-68
2020/12/07 05:42:36;;;;;;;18.40;11.22;;;;;;;-0.12;86.28;99008.55;1770927;80;20973;-72
2020/12/07 05:45:05;;;;;;;17.12;10.18;;;;;;;-0.12;86.32;99006.42;1744234;81;21608;-69
2020/12/07 05:47:34;;;;;;;19.17;13.32;;;;;;;-0.14;86.32;99000.45;1715950;83;21186;-69
2020/12/07 05:50:03;;;;;;;17.52;12.25;;;;;;;-0.15;86.38;99021.86;1742118;81;21025;-71
2020/12/07 05:52:52;;;;;;;13.90;11.20;;;;;;;-0.16;86.35;99003.50;1731946;81;21188;-70
2020/12/07 05:55:21;;;;;;;17.50;12.07;;;;;;;-0.18;86.27;99005.23;1741328;81;22108;-71
2020/12/07 05:58:13;;;;;;;28.32;10.45;;;;;;;-0.21;86.26;99011.70;1736987;81;22177;-71
2020/12/07 06:00:42;;;;;;;17.98;9.08;;;;;;;-0.23;86.38;99002.28;1689519;82;21095;-69
2020/12/07 06:03:09;;;;;;;19.90;13.70;;;;;;;-0.23;86.30;98999.72;1693922;82;21116;-69
2020/12/07 06:05:37;;;;;;;18.52;12.95;;;;;;;-0.23;86.38;99009.14;1665904;84;21304;-69
2020/12/07 06:08:34;;;;;;;20.68;12.82;;;;;;;-0.23;86.37;99020.25;1685805;83;21088;-66
2020/12/07 06:11:05;;;;;;;17.40;11.78;;;;;;;-0.22;86.31;99009.58;1686828;84;21239;-72
2020/12/07 06:13:33;;;;;;;15.75;9.53;;;;;;;-0.23;86.35;99020.25;1665393;85;21071;-71
2020/12/07 06:16:07;;;;;;;13.85;9.95;;;;;;;-0.21;86.36;99018.11;1684729;83;21184;-72
2020/12/07 06:18:38;;;;;;;13.90;9.50;;;;;;;-0.21;86.38;99014.27;1685615;84;20998;-70
2020/12/07 06:21:15;;;;;;;17.55;11.57;;;;;;;-0.21;86.37;99015.55;1686903;83;21615;-71
2020/12/07 06:23:42;;;;;;;17.98;13.38;;;;;;;-0.20;86.37;99021.08;1681186;83;21873;-71
2020/12/07 06:26:15;;;;;;;18.25;14.45;;;;;;;-0.21;86.37;99018.95;1680751;84;21094;-71
2020/12/07 06:28:45;;;;;;;18.70;12.28;;;;;;;-0.20;86.39;99025.77;1688370;83;21637;-72
2020/12/07 06:31:18;;;;;;;18.27;13.20;;;;;;;-0.19;86.35;99027.92;1680987;83;21264;-70
2020/12/07 06:33:51;;;;;;;20.62;12.30;;;;;;;-0.20;86.33;99023.64;1670223;84;21043;-70
2020/12/07 06:36:28;;;;;;;19.70;11.73;;;;;;;-0.19;86.32;99027.92;1681945;83;21232;-72
2020/12/07 06:38:58;;;;;;;13.53;9.93;;;;;;;-0.18;86.32;99020.63;1665761;83;24474;-71
2020/12/07 06:41:39;;;;;;;18.10;11.93;;;;;;;-0.17;86.32;99021.88;1683949;84;21239;-70
2020/12/07 06:44:11;;;;;;;18.23;11.90;;;;;;;-0.16;86.28;99030.44;1688570;84;21212;-67
2020/12/07 06:49:49;;;;;;;16.97;12.25;;;;;;;-0.11;86.30;99024.38;1836339;77;22896;-69
2020/12/07 06:52:12;;;;;;;15.28;10.63;;;;;;;-0.14;86.30;99028.68;1798589;78;21025;-68
2020/12/07 06:55:04;;;;;;;19.48;13.08;;;;;;;-0.14;86.24;99026.11;1807019;78;21278;-70
2020/12/07 06:57:41;;;;;;;16.52;9.43;;;;;;;-0.13;86.25;99007.30;1807039;78;21039;-67
2020/12/07 07:00:26;;;;;;;13.85;9.05;;;;;;;-0.12;86.14;99010.27;1799256;78;20993;-71
2020/12/07 07:02:58;;;;;;;17.15;11.78;;;;;;;-0.14;86.14;99018.42;1801191;78;20991;-69
2020/12/07 07:05:46;;;;;;;16.42;12.58;;;;;;;-0.14;86.10;99020.98;1659861;84;21669;-71
2020/12/07 07:08:13;;;;;;;12.82;8.40;;;;;;;-0.16;86.20;99017.61;1658019;84;22205;-70
2020/12/07 07:10:40;;;;;;;14.55;10.10;;;;;;;-0.15;86.12;98992.36;1664537;84;21049;-70
2020/12/07 07:13:09;;;;;;;19.30;10.18;;;;;;;-0.15;86.09;99010.31;1664037;86;21049;-69
2020/12/07 07:15:43;;;;;;;11.97;8.73;;;;;;;-0.14;86.08;99020.98;1634143;86;21621;-70
2020/12/07 07:18:12;;;;;;;13.83;10.38;;;;;;;-0.15;86.08;99011.59;1660084;84;21257;-68
2020/12/07 07:23:31;;;;;;;20.95;13.32;;;;;;;-0.13;86.00;99015.00;1696934;83;21014;-69
2020/12/07 07:26:29;;;;;;;16.50;12.28;;;;;;;-0.12;86.10;99029.52;1691178;83;21615;-72
2020/12/07 07:29:02;;;;;;;73.20;54.70;;;;;;;-0.08;86.14;99044.01;1687641;83;21250;-70
2020/12/07 07:31:36;;;;;;;39.18;30.88;;;;;;;-0.03;86.18;99057.59;1682857;83;21207;-69
2020/12/07 07:34:04;;;;;;;21.77;14.53;;;;;;;0.01;86.08;99055.41;1692105;83;22130;-69
2020/12/07 07:36:33;;;;;;;19.87;11.97;;;;;;;0.06;86.06;99047.21;1689897;83;21254;-70
2020/12/07 07:39:00;;;;;;;18.82;13.85;;;;;;;0.07;85.94;99050.18;1688869;83;21207;-71
2020/12/07 07:41:30;;;;;;;21.42;12.00;;;;;;;0.09;85.86;99043.31;1688483;83;21127;-70
2020/12/07 07:43:58;;;;;;;16.05;12.40;;;;;;;0.09;85.82;99047.16;1683435;83;21178;-70
2020/12/07 07:46:25;;;;;;;;;;;;;;;0.10;85.87;99046.27;1692085;83;21260;-70
2020/12/07 07:49:16;;;;;;;17.80;11.40;;;;;;;0.13;85.84;99041.09;1691440;83;20534;-68
2020/12/07 07:52:16;;;;;;;18.52;12.10;;;;;;;0.14;85.78;99036.80;1686338;83;21176;-69
2020/12/07 08:00:31;;;;;;;21.10;14.95;;;;;;;0.16;85.63;99034.63;1765255;78;38985;-70
2020/12/07 08:16:22;;;;;;;41.18;26.37;;;;;;;0.16;85.44;99037.62;1745578;80;22037;-70
2020/12/07 08:18:55;;;;;;;45.28;33.18;;;;;;;0.18;85.52;99023.90;1742858;80;21851;-71
2020/12/07 08:21:31;;;;;;;19.05;12.37;;;;;;;0.20;85.59;99024.73;1750256;80;21080;-68
2020/12/07 08:24:06;;;;;;;19.32;11.88;;;;;;;0.26;85.45;99016.52;1747166;80;21064;-70
2020/12/07 08:26:29;;;;;;;15.03;10.90;;;;;;;0.28;85.28;99023.73;1749546;80;21099;-69
2020/12/07 08:28:57;;;;;;;14.95;9.23;;;;;;;0.28;85.29;99022.05;1751457;80;21140;-71
2020/12/07 08:31:24;;;;;;;;;;;;;;;0.28;85.31;99030.16;1752462;80;21212;-71
2020/12/07 08:34:19;;;;;;;;;;;;;;;0.30;85.36;99042.55;1755278;80;20155;-72
2020/12/07 08:36:45;;;;;;;14.83;9.83;;;;;;;0.29;85.03;99039.58;1751834;80;20529;-71
2020/12/07 08:39:32;;;;;;;17.02;11.78;;;;;;;0.30;85.24;99052.81;1748226;80;21028;-71
2020/12/07 08:41:59;;;;;;;13.38;9.03;;;;;;;0.33;85.31;99053.60;1753592;80;21171;-71
2020/12/07 08:44:26;;;;;;;13.03;9.28;;;;;;;0.36;84.99;99037.30;1743793;80;21412;-71
2020/12/07 08:46:53;;;;;;;16.35;11.22;;;;;;;0.34;84.94;99049.34;1746883;80;21159;-70
2020/12/07 08:49:20;;;;;;;15.80;10.28;;;;;;;0.34;85.08;99055.31;1751330;80;21040;-68
2020/12/07 08:51:48;;;;;;;13.35;9.38;;;;;;;0.33;84.83;99047.63;1756501;80;21180;-70
2020/12/07 08:54:15;;;;;;;14.78;11.43;;;;;;;0.35;85.02;99040.75;1752615;80;21190;-68
2020/12/07 08:56:42;;;;;;;13.05;9.05;;;;;;;0.36;85.20;99053.98;1757337;80;21192;-70
2020/12/07 08:59:12;;;;;;;19.07;12.45;;;;;;;0.38;84.95;99058.67;1686896;83;21132;-68
2020/12/07 09:01:41;;;;;;;16.60;11.48;;;;;;;0.39;85.00;99055.22;1683785;83;21215;-71
2020/12/07 09:04:10;;;;;;;15.50;9.50;;;;;;;0.43;85.07;99056.87;1677384;83;21195;-70
2020/12/07 09:06:40;;;;;;;17.52;11.35;;;;;;;0.47;84.92;99060.23;1687151;83;21191;-68
2020/12/07 09:09:09;;;;;;;17.45;10.80;;;;;;;0.49;84.99;99054.20;1686661;83;21278;-71
2020/12/07 09:11:36;;;;;;;20.43;10.48;;;;;;;0.50;84.62;99043.05;1684351;83;21648;-69
2020/12/07 09:14:06;;;;;;;16.90;10.80;;;;;;;0.50;84.72;99052.48;1679836;83;21013;-69
2020/12/07 09:16:33;;;;;;;17.67;12.05;;;;;;;0.49;84.71;99049.06;1693642;82;21036;-66
2020/12/07 09:19:00;;;;;;;21.02;11.90;;;;;;;0.49;84.68;99056.77;1694020;82;21240;-70
2020/12/07 09:21:32;;;;;;;20.45;13.03;;;;;;;0.48;84.81;99053.80;1694138;82;21672;-69
2020/12/07 09:24:00;;;;;;;19.20;12.70;;;;;;;0.52;84.74;99063.58;1696510;82;21214;-68
2020/12/07 09:26:39;;;;;;;20.72;13.30;;;;;;;0.56;84.93;99054.93;1693869;82;21059;-70
2020/12/07 09:29:13;;;;;;;17.60;12.58;;;;;;;0.59;84.78;99045.47;1693381;82;21001;-69
2020/12/07 09:31:41;;;;;;;13.08;8.83;;;;;;;0.60;84.47;99039.45;1694390;82;21179;-69
2020/12/07 09:34:08;;;;;;;21.90;13.35;;;;;;;0.57;84.29;99039.51;1696369;82;21218;-69
2020/12/07 09:36:35;;;;;;;15.10;10.10;;;;;;;0.54;84.49;99038.28;1696965;82;21692;-69
2020/12/07 09:39:02;;;;;;;20.48;11.57;;;;;;;0.55;84.46;99042.53;1696378;82;21219;-69
2020/12/07 09:41:30;;;;;;;20.48;13.58;;;;;;;0.57;84.58;99042.08;1690016;83;21226;-71
2020/12/07 09:43:57;;;;;;;21.33;13.25;;;;;;;0.61;84.77;99038.56;1689503;82;21171;-69
2020/12/07 09:49:01;;;;;;;22.15;11.22;;;;;;;0.73;84.41;99018.66;1833368;77;22141;-71
2020/12/07 09:51:31;;;;;;;16.30;11.40;;;;;;;0.66;84.22;99020.06;1802848;78;21009;-69
2020/12/07 09:53:59;;;;;;;18.05;12.07;;;;;;;0.61;84.15;99020.58;1746765;78;22587;-70
2020/12/07 09:56:31;;;;;;;22.70;12.37;;;;;;;0.61;84.31;99023.14;1769847;78;21230;-71
2020/12/07 09:59:01;;;;;;;20.88;12.20;;;;;;;0.61;84.43;99015.44;1803145;78;21522;-68
2020/12/07 10:01:29;;;;;;;18.82;12.53;;;;;;;0.68;84.59;99021.77;1801927;77;21068;-72
2020/12/07 10:03:59;;;;;;;20.10;11.88;;;;;;;0.72;84.33;99024.69;1798315;77;21033;-71
2020/12/07 10:06:26;;;;;;;22.90;15.60;;;;;;;0.74;84.23;99017.80;1799210;78;21197;-71
2020/12/07 10:08:53;;;;;;;;;;;;;;;0.72;84.34;99019.55;1801742;77;21582;-69
2020/12/07 10:11:20;;;;;;;21.48;15.78;;;;;;;0.74;84.47;99001.10;1802601;77;20259;-71
2020/12/07 10:13:48;;;;;;;15.68;10.15;;;;;;;0.70;84.37;99003.30;1800265;78;21054;-72
2020/12/07 10:16:15;;;;;;;18.75;13.20;;;;;;;0.81;84.03;99007.80;1800805;78;21216;-72
2020/12/07 10:18:42;;;;;;;24.32;13.25;;;;;;;0.75;84.04;99006.64;1804343;77;21888;-72
2020/12/07 10:21:10;;;;;;;17.42;11.55;;;;;;;0.77;84.20;99010.87;1804238;78;21163;-70
2020/12/07 10:23:41;;;;;;;19.05;13.22;;;;;;;0.79;84.02;98995.44;1801305;78;21644;-69
2020/12/07 10:26:12;;;;;;;18.02;10.88;;;;;;;0.79;83.99;98990.30;1798997;78;21184;-70
2020/12/07 10:28:39;;;;;;;;;;;;;;;0.80;83.84;98995.84;1804965;78;21880;-69
2020/12/07 10:31:06;;;;;;;18.73;13.05;;;;;;;0.80;83.97;98994.55;1800673;78;21254;-72
2020/12/07 10:33:32;;;;;;;21.82;13.65;;;;;;;0.82;83.98;99000.08;1800854;78;21179;-70
2020/12/07 10:36:00;;;;;;;20.40;13.03;;;;;;;0.86;84.00;98988.00;1800002;78;21230;-70
2020/12/07 10:38:27;;;;;;;20.48;12.70;;;;;;;0.87;83.75;98988.43;1804815;77;21058;-68
2020/12/07 10:40:55;;;;;;;18.52;12.95;;;;;;;0.87;83.86;98993.13;1804037;78;21131;-72
2020/12/07 10:43:23;;;;;;;18.15;11.75;;;;;;;0.92;83.97;98992.17;1802464;78;21226;-71
2020/12/07 10:45:50;;;;;;;11.20;7.08;;;;;;;0.93;83.73;98989.59;1799419;78;21210;-70
2020/12/07 10:48:17;;;;;;;16.05;9.83;;;;;;;0.98;83.59;98983.92;1762452;79;21195;-69
2020/12/07 10:50:44;;;;;;;13.15;9.30;;;;;;;0.95;83.34;98973.67;1738540;81;21637;-71
2020/12/07 10:53:11;;;;;;;15.10;10.95;;;;;;;0.91;83.11;98964.34;1738353;81;21148;-70
2020/12/07 10:55:41;;;;;;;14.90;10.18;;;;;;;0.86;83.31;98969.56;1760453;79;21191;-71
2020/12/07 10:58:08;;;;;;;19.17;11.93;;;;;;;0.86;83.43;98961.02;1738202;80;21215;-74
2020/12/07 11:00:37;;;;;;;15.32;9.93;;;;;;;0.87;83.47;98958.88;1734841;81;21010;-71
2020/12/07 11:03:05;;;;;;;17.65;10.25;;;;;;;0.88;83.07;98950.27;1739154;80;21211;-71
2020/12/07 11:05:34;;;;;;;16.52;9.95;;;;;;;0.85;83.19;98948.61;1738791;80;21265;-71
2020/12/07 11:08:02;;;;;;;15.43;11.85;;;;;;;0.80;83.10;98950.86;1741334;81;21768;-71
2020/12/07 11:10:32;;;;;;;16.10;9.30;;;;;;;0.76;83.17;98938.97;1740414;80;21207;-71
2020/12/07 11:13:04;;;;;;;21.60;12.37;;;;;;;0.75;83.13;98942.40;1739738;81;21213;-71
2020/12/07 11:15:29;;;;;;;21.60;14.18;;;;;;;0.73;83.32;98962.13;1734958;81;21037;-70
2020/12/07 11:17:56;;;;;;;15.93;11.57;;;;;;;0.78;83.52;98970.59;1740183;81;21250;-71
2020/12/07 11:20:23;;;;;;;20.08;12.88;;;;;;;0.84;83.18;98983.32;1741418;81;21266;-72
2020/12/07 11:22:50;;;;;;;17.70;12.07;;;;;;;0.84;83.27;98985.89;1740644;81;21206;-71
2020/12/07 11:25:17;;;;;;;22.45;14.07;;;;;;;0.86;83.02;98966.16;1739749;80;21614;-73
2020/12/07 11:27:44;;;;;;;15.13;11.05;;;;;;;0.88;83.23;98982.41;1739432;81;21194;-72
2020/12/07 11:30:11;;;;;;;18.92;11.53;;;;;;;0.90;82.94;98967.80;1734897;81;21153;-69
2020/12/07 11:32:41;;;;;;;17.65;11.28;;;;;;;0.87;83.01;98970.44;1735010;81;22239;-69
2020/12/07 11:35:12;;;;;;;16.20;10.28;;;;;;;0.87;83.10;98975.58;1697588;81;21859;-69
2020/12/07 11:37:40;;;;;;;20.77;13.83;;;;;;;0.89;83.08;98966.09;1740248;80;21212;-68
2020/12/07 11:43:21;;;;;;;18.27;11.50;;;;;;;0.95;83.06;98950.54;1739959;81;21175;-69
2020/12/07 11:46:03;;;;;;;22.45;13.98;;;;;;;0.89;82.89;98941.67;1737365;81;21202;-67
2020/12/07 11:48:31;;;;;;;23.32;14.58;;;;;;;0.85;82.94;98961.91;1741894;81;21644;-68
2020/12/07 11:50:58;;;;;;;;;;;;;;;0.81;82.88;98944.84;1753588;81;21631;-67
2020/12/07 11:53:25;;;;;;;13.70;8.90;;;;;;;0.74;82.42;98942.00;1749475;81;20244;-68
2020/12/07 11:55:52;;;;;;;17.52;11.73;;;;;;;0.71;82.77;98943.34;1750600;81;21187;-67
2020/12/07 11:58:19;;;;;;;21.95;13.80;;;;;;;0.66;82.72;98935.72;1749947;81;22176;-67
2020/12/07 12:00:46;;;;;;;17.25;11.38;;;;;;;0.64;83.04;98943.47;1759492;79;21052;-66
2020/12/07 12:03:13;;;;;;;22.25;12.05;;;;;;;0.64;82.79;98953.75;1759586;80;21338;-67
2020/12/07 12:05:40;;;;;;;20.85;13.85;;;;;;;0.62;82.67;98950.36;1743533;80;21182;-66
2020/12/07 12:08:07;;;;;;;19.07;13.35;;;;;;;0.62;82.99;98964.93;1739751;81;20993;-67
2020/12/07 12:10:34;;;;;;;19.07;13.32;;;;;;;0.63;83.09;98971.31;1738265;80;21818;-65
2020/12/07 12:13:01;;;;;;;23.62;15.63;;;;;;;0.63;82.97;98964.89;1762337;79;21091;-66